Time;durP1;ratioP1;P1;durP2;ratioP2;P2;SDS_P1;SDS_P2;PMS_P1;PMS_P2;Temp;Humidity;BMP_temperature;BMP_pressure;BME280_temperature;BME280_humidity;BME280_pressure;Samples;Min_cycle;Max_cycle;Signal;HPM_P1;HPM_P2
2022/03/24 00:02:17;;;;;;;;;;;;;;;0.75;47.74;98147.33;110079;1247;69242;-62
2022/03/24 00:04:47;;;;;;;;;;;;;;;0.61;45.83;98147.64;110234;1244;59693;-62
2022/03/24 00:07:16;;;;;;;;;;;;;;;0.51;46.38;98149.23;110164;1247;59689;-61
2022/03/24 00:09:46;;;;;;;;;;;;;;;0.36;49.85;98150.22;110018;1246;71001;-62
2022/03/24 00:12:16;;;;;;;;;;;;;;;0.22;50.21;98149.64;110081;1245;67793;-63
2022/03/24 00:14:47;;;;;;;;;;;;;;;0.07;50.79;98151.31;110380;1244;69471;-63
2022/03/24 00:17:16;;;;;;;;;;;;;;;-0.09;52.36;98148.52;110384;1244;59675;-62
2022/03/24 00:19:46;;;;;;;;;;;;;;;-0.22;51.22;98147.38;110138;1247;59736;-64
2022/03/24 00:22:15;;;;;;;;;;;;;;;-0.34;49.82;98140.23;110253;1244;70806;-63
2022/03/24 00:24:56;;;;;;;;;;;;;;;-0.43;49.88;98138.16;110389;1244;67628;-61
2022/03/24 00:27:27;;;;;;;;;;;;;;;-0.50;51.27;98132.63;110120;1246;67701;-63
2022/03/24 00:29:56;;;;;;;;;;;;;;;-0.55;52.45;98129.45;110288;1244;59664;-61
2022/03/24 00:32:25;;;;;;;;;;;;;;;-0.59;51.81;98127.30;110127;1244;59719;-63
2022/03/24 00:34:55;;;;;;;;;;;;;;;-0.64;50.22;98126.02;110084;1245;70358;-61
2022/03/24 00:37:25;;;;;;;;;;;;;;;-0.69;52.15;98124.05;110461;1244;68449;-64
2022/03/24 00:39:55;;;;;;;;;;;;;;;-0.77;49.30;98123.15;110420;1244;68436;-63
2022/03/24 00:42:25;;;;;;;;;;;;;;;-0.86;47.80;98118.67;110160;1247;59741;-65
2022/03/24 00:44:57;;;;;;;;;;;;;;;-0.95;54.63;98117.63;110159;1244;59689;-62
2022/03/24 00:47:27;;;;;;;;;;;;;;;-1.05;55.42;98119.13;110214;1245;69824;-63
2022/03/24 00:49:56;;;;;;;;;;;;;;;-1.13;55.09;98113.61;110457;1244;68637;-63
2022/03/24 00:52:26;;;;;;;;;;;;;;;-1.20;56.63;98114.05;110408;1244;68686;-65
2022/03/24 00:54:57;;;;;;;;;;;;;;;-1.25;55.87;98110.70;110117;1244;59719;-66
2022/03/24 00:57:27;;;;;;;;;;;;;;;-1.29;56.10;98112.98;110396;1244;59687;-64
2022/03/24 00:59:57;;;;;;;;;;;;;;;-1.31;56.79;98110.96;110163;1244;71572;-65
2022/03/24 01:02:28;;;;;;;;;;;;;;;-1.34;55.54;98110.83;110450;1244;68505;-62
2022/03/24 01:04:58;;;;;;;;;;;;;;;-1.37;52.08;98107.80;110378;1244;69502;-61
2022/03/24 01:07:28;;;;;;;;;;;;;;;-1.35;50.58;98101.27;110147;1247;59760;-63
2022/03/24 01:09:57;;;;;;;;;;;;;;;-1.30;51.12;98103.25;110109;1245;59732;-63
2022/03/24 01:12:28;;;;;;;;;;;;;;;-1.31;51.66;98100.70;110403;1244;71389;-62
2022/03/24 01:14:59;;;;;;;;;;;;;;;-1.36;53.09;98098.55;110324;1244;68032;-63
2022/03/24 01:17:28;;;;;;;;;;;;;;;-1.43;54.10;98094.02;110372;1244;69302;-61
2022/03/24 01:19:58;;;;;;;;;;;;;;;-1.55;56.42;98089.93;110352;1244;59710;-62
2022/03/24 01:22:28;;;;;;;;;;;;;;;-1.65;56.54;98091.44;110462;1244;59707;-63
2022/03/24 01:24:59;;;;;;;;;;;;;;;-1.76;58.01;98094.66;110194;1245;71544;-63
2022/03/24 01:27:29;;;;;;;;;;;;;;;-1.82;58.25;98094.57;110432;1244;68587;-62
2022/03/24 01:30:00;;;;;;;;;;;;;;;-1.87;56.17;98093.08;110204;1245;70566;-62
2022/03/24 01:32:30;;;;;;;;;;;;;;;-1.91;55.87;98090.06;110316;1244;59755;-62
2022/03/24 01:35:00;;;;;;;;;;;;;;;-1.95;54.93;98088.73;110402;1244;59676;-62
2022/03/24 01:37:30;;;;;;;;;;;;;;;-1.97;55.86;98087.23;110138;1244;71621;-61
2022/03/24 01:40:00;;;;;;;;;;;;;;;-1.97;55.75;98085.70;110132;1246;68561;-62
2022/03/24 01:42:34;;;;;;;;;;;;;;;-1.95;52.81;98083.61;110187;1247;68445;-63
2022/03/24 01:45:04;;;;;;;;;;;;;;;-1.91;53.31;98082.73;110134;1245;59744;-61
2022/03/24 01:47:35;;;;;;;;;;;;;;;-1.90;54.83;98085.09;110425;1244;59758;-61
2022/03/24 01:50:06;;;;;;;;;;;;;;;-1.92;53.34;98086.16;110100;1245;70780;-62
2022/03/24 01:52:36;;;;;;;;;;;;;;;-1.93;52.16;98081.89;110097;1247;68443;-61
2022/03/24 01:55:07;;;;;;;;;;;;;;;-1.88;53.90;98083.36;110151;1246;69436;-60
2022/03/24 01:57:36;;;;;;;;;;;;;;;-1.82;54.31;98082.77;110150;1247;59708;-63
2022/03/24 02:00:07;;;;;;;;;;;;;;;-1.80;55.70;98085.48;110230;1245;59669;-65
2022/03/24 02:02:45;;;;;;;;;;;;;;;-1.83;53.11;98080.04;110202;1246;70725;-64
2022/03/24 02:05:15;;;;;;;;;;;;;;;-1.80;53.31;98078.14;109915;1248;68429;-64
2022/03/24 02:07:45;;;;;;;;;;;;;;;-1.79;54.66;98082.91;110046;1247;69889;-64
2022/03/24 02:10:17;;;;;;;;;;;;;;;-1.86;57.10;98086.06;110110;1246;59753;-61
2022/03/24 02:12:53;;;;;;;;;;;;;;;-1.94;57.66;98084.96;110116;1247;59720;-64
2022/03/24 02:15:22;;;;;;;;;;;;;;;-2.01;57.27;98083.02;110173;1244;70805;-63
2022/03/24 02:17:53;;;;;;;;;;;;;;;-2.08;57.24;98083.25;110129;1244;68320;-63
2022/03/24 02:20:25;;;;;;;;;;;;;;;-2.17;56.55;98080.11;110101;1247;69220;-61
2022/03/24 02:22:54;;;;;;;;;;;;;;;-2.26;57.96;98075.60;110124;1247;59904;-61
2022/03/24 02:25:28;;;;;;;;;;;;;;;-2.38;56.82;98074.20;110158;1246;59661;-63
2022/03/24 02:28:01;;;;;;;;;;;;;;;-2.64;59.57;98078.90;110195;1246;71340;-61
2022/03/24 02:30:31;;;;;;;;;;;;;;;-2.80;60.65;98082.45;110155;1247;68205;-64
2022/03/24 02:33:01;;;;;;;;;;;;;;;-2.92;59.49;98076.59;110134;1247;68672;-61
2022/03/24 02:35:32;;;;;;;;;;;;;;;-2.97;59.67;98072.54;110064;1247;59742;-64
2022/03/24 02:38:02;;;;;;;;;;;;;;;-2.98;58.54;98070.00;110094;1247;59669;-63
2022/03/24 02:40:33;;;;;;;;;;;;;;;-2.95;60.85;98074.58;110068;1246;71630;-62
2022/03/24 02:43:02;;;;;;;;;;;;;;;-2.92;62.70;98075.91;110112;1247;68565;-62
2022/03/24 02:45:32;;;;;;;;;;;;;;;-2.94;59.28;98066.72;110121;1246;68721;-63
2022/03/24 02:48:03;;;;;;;;;;;;;;;-2.97;56.29;98065.90;110147;1247;59717;-62
2022/03/24 02:50:34;;;;;;;;;;;;;;;-3.01;57.88;98069.50;110105;1247;59720;-61
2022/03/24 02:53:04;;;;;;;;;;;;;;;-3.02;60.91;98067.99;110076;1247;70624;-61
2022/03/24 02:55:35;;;;;;;;;;;;;;;-3.05;61.09;98066.98;109471;1247;763032;-61
2022/03/24 02:58:05;;;;;;;;;;;;;;;-3.09;61.84;98067.71;110123;1247;67630;-61
2022/03/24 03:00:38;;;;;;;;;;;;;;;-3.11;63.32;98066.69;110116;1247;59691;-63
2022/03/24 03:03:10;;;;;;;;;;;;;;;-3.16;60.69;98067.06;110135;1247;59754;-63
2022/03/24 03:05:40;;;;;;;;;;;;;;;-3.21;57.65;98067.12;110073;1247;71480;-61
2022/03/24 03:08:10;;;;;;;;;;;;;;;-3.24;59.38;98065.77;110098;1247;67772;-62
2022/03/24 03:10:40;;;;;;;;;;;;;;;-3.23;62.49;98072.42;110112;1247;68613;-62
2022/03/24 03:13:10;;;;;;;;;;;;;;;-3.24;64.14;98070.20;110092;1247;59764;-62
2022/03/24 03:15:40;;;;;;;;;;;;;;;-3.25;60.67;98070.90;110141;1247;59700;-63
2022/03/24 03:18:10;;;;;;;;;;;;;;;-3.25;56.99;98064.74;110169;1247;71795;-63
2022/03/24 03:20:40;;;;;;;;;;;;;;;-3.22;59.26;98068.15;110205;1244;68472;-63
2022/03/24 03:23:10;;;;;;;;;;;;;;;-3.23;60.22;98065.24;110190;1247;69417;-61
2022/03/24 03:25:40;;;;;;;;;;;;;;;-3.26;57.14;98063.92;110175;1247;59677;-62
2022/03/24 03:28:09;;;;;;;;;;;;;;;-3.29;56.45;98061.88;110184;1247;59678;-64
2022/03/24 03:30:40;;;;;;;;;;;;;;;-3.27;56.99;98059.50;110120;1247;71331;-61
2022/03/24 03:33:11;;;;;;;;;;;;;;;-3.34;58.64;98051.53;110127;1245;68606;-62
2022/03/24 03:35:44;;;;;;;;;;;;;;;-3.45;59.07;98054.16;110178;1246;69374;-61
2022/03/24 03:38:15;;;;;;;;;;;;;;;-3.59;60.12;98052.03;110088;1247;59693;-63
2022/03/24 03:40:45;;;;;;;;;;;;;;;-3.68;60.75;98054.30;110086;1247;60492;-64
2022/03/24 03:43:15;;;;;;;;;;;;;;;-3.73;61.33;98058.77;110097;1247;71532;-63
2022/03/24 03:45:48;;;;;;;;;;;;;;;-3.76;64.01;98055.89;109870;1247;67907;-60
2022/03/24 03:48:18;;;;;;;;;;;;;;;-3.78;60.91;98049.77;110129;1247;69389;-61
2022/03/24 03:50:48;;;;;;;;;;;;;;;-3.75;61.77;98051.61;110217;1246;59749;-62
2022/03/24 03:53:18;;;;;;;;;;;;;;;-3.75;62.46;98052.48;110171;1246;59755;-62
2022/03/24 03:55:48;;;;;;;;;;;;;;;-3.80;63.68;98053.35;110099;1247;70567;-64
2022/03/24 03:58:17;;;;;;;;;;;;;;;-3.81;65.17;98055.39;109865;1247;68803;-64
2022/03/24 04:00:55;;;;;;;;;;;;;;;-3.80;65.75;98058.46;110093;1247;68498;-64
2022/03/24 04:03:26;;;;;;;;;;;;;;;-3.84;64.23;98058.65;110178;1247;59665;-65
2022/03/24 04:05:57;;;;;;;;;;;;;;;-3.87;65.44;98058.84;110068;1248;59734;-65
2022/03/24 04:08:30;;;;;;;;;;;;;;;-3.94;63.43;98057.17;110113;1247;70766;-65
2022/03/24 04:11:00;;;;;;;;;;;;;;;-4.00;62.64;98058.23;110058;1248;67818;-63
2022/03/24 04:13:30;;;;;;;;;;;;;;;-4.03;65.98;98058.06;110105;1246;69377;-61
2022/03/24 04:15:59;;;;;;;;;;;;;;;-4.09;64.91;98062.70;110111;1245;59683;-62
2022/03/24 04:18:30;;;;;;;;;;;;;;;-4.15;65.08;98061.02;110209;1244;59617;-61
2022/03/24 04:20:59;;;;;;;;;;;;;;;-4.21;65.98;98060.18;110137;1247;71358;-61
2022/03/24 04:23:29;;;;;;;;;;;;;;;-4.24;66.77;98064.11;110105;1247;67900;-64
2022/03/24 04:25:59;;;;;;;;;;;;;;;-4.23;67.22;98063.09;110137;1246;68606;-63
2022/03/24 04:28:28;;;;;;;;;;;;;;;-4.23;64.86;98066.16;110304;1244;59703;-64
2022/03/24 04:30:58;;;;;;;;;;;;;;;-4.22;64.87;98062.06;110228;1244;59689;-62
2022/03/24 04:33:28;;;;;;;;;;;;;;;-4.18;66.44;98058.13;110433;1244;70582;-61
2022/03/24 04:35:58;;;;;;;;;;;;;;;-4.14;66.05;98055.73;110068;1247;67864;-63
2022/03/24 04:38:28;;;;;;;;;;;;;;;-4.10;66.74;98053.67;110160;1247;69216;-62
2022/03/24 04:40:57;;;;;;;;;;;;;;;-4.08;66.36;98052.30;110332;1244;59706;-61
2022/03/24 04:43:27;;;;;;;;;;;;;;;-4.03;64.58;98052.79;110101;1247;59730;-61
2022/03/24 04:45:56;;;;;;;;;;;;;;;-3.93;65.36;98051.38;110332;1244;72164;-62
2022/03/24 04:48:25;;;;;;;;;;;;;;;-3.78;62.97;98049.42;110384;1245;68728;-62
2022/03/24 04:50:54;;;;;;;;;;;;;;;-3.58;63.40;98046.58;110165;1247;68902;-64
2022/03/24 04:53:24;;;;;;;;;;;;;;;-3.34;65.32;98045.71;110103;1244;59710;-65
2022/03/24 04:55:53;;;;;;;;;;;;;;;-3.03;63.39;98048.73;110385;1244;59787;-64
2022/03/24 04:58:23;;;;;;;;;;;;;;;-2.68;62.86;98050.61;110159;1244;70459;-61
2022/03/24 05:00:52;;;;;;;;;;;;;;;-2.33;61.55;98050.23;110104;1244;68643;-61
2022/03/24 05:03:21;;;;;;;;;;;;;;;-1.98;60.79;98047.09;110115;1244;68707;-62
2022/03/24 05:05:50;;;;;;;;;;;;;;;-1.68;59.91;98043.63;110075;1245;59733;-61
2022/03/24 05:08:20;;;;;;;;;;;;;;;-1.44;58.75;98040.52;110400;1244;59678;-61
2022/03/24 05:10:49;;;;;;;;;;;;;;;-1.27;58.50;98042.34;110104;1244;70510;-62
2022/03/24 05:13:18;;;;;;;;;;;;;;;-1.04;58.33;98041.45;110382;1244;67967;-63
2022/03/24 05:15:48;;;;;;;;;;;;;;;-0.76;58.16;98040.29;110352;1244;69527;-62
2022/03/24 05:18:17;;;;;;;;;;;;;;;-0.51;57.40;98041.04;110422;1244;59805;-61
2022/03/24 05:20:46;;;;;;;;;;;;;;;-0.35;56.00;98042.63;110095;1247;59741;-58
2022/03/24 05:23:15;;;;;;;;;;;;;;;-0.32;55.02;98045.98;110422;1245;70966;-62
2022/03/24 05:25:47;;;;;;;;;;;;;;;-0.33;55.13;98042.40;110450;1244;69250;-61
2022/03/24 05:28:17;;;;;;;;;;;;;;;-0.16;55.49;98042.07;110306;1244;69578;-62
2022/03/24 05:30:47;;;;;;;;;;;;;;;0.10;55.20;98040.85;110492;1244;59740;-63
2022/03/24 05:33:16;;;;;;;;;;;;;;;0.24;54.72;98040.89;110409;1244;59698;-60
2022/03/24 05:35:46;;;;;;;;;;;;;;;0.53;54.13;98038.20;110389;1244;71142;-62
2022/03/24 05:38:15;;;;;;;;;;;;;;;0.72;53.55;98037.77;110325;1244;67805;-61
2022/03/24 05:40:44;;;;;;;;;;;;;;;1.00;53.51;98039.66;110164;1244;69446;-62
2022/03/24 05:43:13;;;;;;;;;;;;;;;1.12;51.92;98039.73;110439;1244;59754;-60
2022/03/24 05:45:42;;;;;;;;;;;;;;;1.20;51.22;98039.33;110299;1244;59640;-62
2022/03/24 05:48:12;;;;;;;;;;;;;;;1.26;50.79;98041.95;110148;1244;70780;-60
2022/03/24 05:50:50;;;;;;;;;;;;;;;1.43;50.39;98042.70;110287;1244;68709;-63
2022/03/24 05:53:25;;;;;;;;;;;;;;;1.67;49.75;98044.30;110294;1243;68909;-61
2022/03/24 05:55:54;;;;;;;;;;;;;;;1.93;49.11;98047.55;110398;1244;59714;-60
2022/03/24 05:58:25;;;;;;;;;;;;;;;2.15;48.75;98036.58;110166;1245;59683;-62
2022/03/24 06:00:54;;;;;;;;;;;;;;;2.39;47.90;98034.84;110391;1244;70910;-62
2022/03/24 06:03:25;;;;;;;;;;;;;;;2.58;47.31;98037.73;110457;1244;68818;-63
2022/03/24 06:05:57;;;;;;;;;;;;;;;2.80;47.04;98044.08;110143;1244;68576;-63
2022/03/24 06:08:26;;;;;;;;;;;;;;;3.18;46.16;98043.38;110413;1244;59676;-63
2022/03/24 06:10:55;;;;;;;;;;;;;;;3.43;45.68;98048.91;110503;1244;59737;-61
2022/03/24 06:13:25;;;;;;;;;;;;;;;3.78;45.42;98047.70;110379;1244;70758;-61
2022/03/24 06:15:55;;;;;;;;;;;;;;;4.12;44.57;98046.98;110129;1245;67866;-64
2022/03/24 06:18:25;;;;;;;;;;;;;;;4.37;44.22;98047.29;110154;1245;68651;-64
2022/03/24 06:20:54;;;;;;;;;;;;;;;4.71;44.60;98040.24;110126;1245;59679;-62
2022/03/24 06:23:23;;;;;;;;;;;;;;;5.14;44.72;98043.89;110421;1244;59666;-64
2022/03/24 06:25:52;;;;;;;;;;;;;;;5.29;44.22;98041.17;110119;1244;72335;-67
2022/03/24 06:28:27;;;;;;;;;;;;;;;5.26;42.82;98039.41;110191;1244;69371;-66
2022/03/24 06:30:57;;;;;;;;;;;;;;;5.12;42.38;98034.48;110282;1245;68810;-63
2022/03/24 06:33:26;;;;;;;;;;;;;;;4.74;42.97;98029.45;110156;1247;60046;-65
2022/03/24 06:35:55;;;;;;;;;;;;;;;4.57;44.13;98026.63;110344;1244;59745;-67
2022/03/24 06:38:24;;;;;;;;;;;;;;;4.44;44.59;98023.86;110444;1244;71665;-66
2022/03/24 06:40:53;;;;;;;;;;;;;;;4.53;44.01;98020.94;110053;1245;68624;-66
2022/03/24 06:43:24;;;;;;;;;;;;;;;4.90;41.86;98024.11;110299;1244;69257;-66
2022/03/24 06:45:53;;;;;;;;;;;;;;;5.29;42.24;98021.17;110362;1244;59741;-67
2022/03/24 06:48:22;;;;;;;;;;;;;;;5.51;40.70;98020.71;110351;1244;59757;-65
2022/03/24 06:50:51;;;;;;;;;;;;;;;5.78;40.43;98019.56;110122;1245;71524;-69
2022/03/24 06:53:20;;;;;;;;;;;;;;;5.90;40.21;98016.29;110179;1247;67800;-64
2022/03/24 06:55:50;;;;;;;;;;;;;;;6.15;39.64;98009.80;110176;1247;69295;-65
2022/03/24 06:58:18;;;;;;;;;;;;;;;6.41;39.36;98009.33;110140;1244;59693;-68
2022/03/24 07:00:48;;;;;;;;;;;;;;;6.74;38.04;98008.61;110186;1247;59616;-65
2022/03/24 07:03:17;;;;;;;;;;;;;;;6.96;37.06;98007.38;110178;1245;72268;-66
2022/03/24 07:05:47;;;;;;;;;;;;;;;7.26;36.42;98006.80;110413;1244;67951;-66
2022/03/24 07:08:16;;;;;;;;;;;;;;;7.40;35.30;98009.20;110396;1244;69453;-71
2022/03/24 07:10:47;;;;;;;;;;;;;;;7.83;34.90;98006.29;110219;1244;59701;-70
2022/03/24 07:13:17;;;;;;;;;;;;;;;8.01;34.68;98011.23;110323;1244;59690;-70
2022/03/24 07:15:46;;;;;;;;;;;;;;;8.40;34.39;98003.79;110201;1245;71635;-68
2022/03/24 07:18:15;;;;;;;;;;;;;;;8.77;33.34;98004.54;110405;1244;67909;-64
2022/03/24 07:20:45;;;;;;;;;;;;;;;9.02;32.75;98008.54;110122;1244;69659;-64
2022/03/24 07:23:14;;;;;;;;;;;;;;;9.06;32.13;98008.77;110377;1244;59665;-63
2022/03/24 07:25:43;;;;;;;;;;;;;;;9.46;31.88;98011.51;110475;1244;59624;-65
2022/03/24 07:28:12;;;;;;;;;;;;;;;9.93;31.46;98006.81;110189;1247;70798;-66
2022/03/24 07:30:43;;;;;;;;;;;;;;;10.18;31.03;98005.27;110118;1247;68118;-66
2022/03/24 07:33:12;;;;;;;;;;;;;;;10.51;30.48;98002.17;110358;1244;69256;-68
2022/03/24 07:35:42;;;;;;;;;;;;;;;10.74;29.81;98002.14;110166;1245;59741;-67
2022/03/24 07:38:11;;;;;;;;;;;;;;;11.03;30.48;98001.12;110195;1243;59650;-70
2022/03/24 07:40:40;;;;;;;;;;;;;;;11.08;28.47;97996.81;110287;1243;71569;-65
2022/03/24 07:43:09;;;;;;;;;;;;;;;11.21;27.84;97997.14;110233;1245;68500;-64
2022/03/24 07:45:38;;;;;;;;;;;;;;;11.47;27.83;97991.40;110102;1244;68841;-64
2022/03/24 07:48:17;;;;;;;;;;;;;;;11.64;27.31;97987.80;110178;1244;59734;-66
2022/03/24 07:50:48;;;;;;;;;;;;;;;11.75;26.72;97987.91;110415;1244;59745;-66
2022/03/24 07:53:34;;;;;;;;;;;;;;;12.12;26.33;97989.77;110165;1244;72861;-69
2022/03/24 07:56:03;;;;;;;;;;;;;;;12.13;26.19;97980.78;110337;1244;67833;-65
2022/03/24 07:58:32;;;;;;;;;;;;;;;12.56;25.60;97982.33;110167;1244;68723;-66
2022/03/24 08:01:02;;;;;;;;;;;;;;;12.58;25.70;97973.96;110150;1242;59729;-68
2022/03/24 08:03:31;;;;;;;;;;;;;;;12.97;25.54;97974.08;110374;1244;59703;-70
2022/03/24 08:06:02;;;;;;;;;;;;;;;13.43;24.14;97972.08;110435;1244;70590;-68
2022/03/24 08:08:31;;;;;;;;;;;;;;;13.68;23.05;97964.18;110334;1244;68636;-68
2022/03/24 08:11:00;;;;;;;;;;;;;;;13.73;23.26;97961.39;110422;1242;69573;-69
2022/03/24 08:13:29;;;;;;;;;;;;;;;14.13;23.70;97962.14;110150;1245;59753;-65
2022/03/24 08:15:58;;;;;;;;;;;;;;;14.57;22.13;97966.69;110261;1244;59652;-67
2022/03/24 08:18:27;;;;;;;;;;;;;;;14.86;22.42;97957.90;110175;1245;71622;-66
2022/03/24 08:20:56;;;;;;;;;;;;;;;15.38;21.58;97956.52;110152;1244;68197;-66
2022/03/24 08:23:26;;;;;;;;;;;;;;;15.59;21.47;97956.39;110149;1247;68567;-67
2022/03/24 08:25:55;;;;;;;;;;;;;;;16.10;20.50;97950.92;110435;1244;59763;-66
2022/03/24 08:28:24;;;;;;;;;;;;;;;16.49;19.73;97951.98;110412;1244;59709;-67
2022/03/24 08:30:53;;;;;;;;;;;;;;;16.88;18.94;97956.27;110156;1246;71623;-67
2022/03/24 08:33:22;;;;;;;;;;;;;;;17.18;18.59;97948.45;110220;1247;69341;-68
2022/03/24 08:35:51;;;;;;;;;;;;;;;17.43;18.80;97946.41;110330;1244;70012;-63
2022/03/24 08:38:20;;;;;;;;;;;;;;;17.51;18.76;97950.00;110283;1244;59692;-64
2022/03/24 08:40:49;;;;;;;;;;;;;;;17.58;18.40;97945.48;110373;1244;59685;-63
2022/03/24 08:43:18;;;;;;;;;;;;;;;17.54;18.07;97941.89;110470;1244;70953;-64
2022/03/24 08:45:48;;;;;;;;;;;;;;;17.35;17.85;97938.41;110379;1244;68181;-64
2022/03/24 08:48:22;;;;;;;;;;;;;;;17.88;17.69;97934.49;110122;1247;68906;-66
2022/03/24 08:51:01;;;;;;;;;;;;;;;18.23;17.13;97925.78;110173;1244;59678;-64
2022/03/24 08:53:35;;;;;;;;;;;;;;;18.37;17.11;97925.27;110282;1244;59742;-66
2022/03/24 08:56:04;;;;;;;;;;;;;;;18.72;17.41;97926.51;110429;1244;72037;-64
2022/03/24 08:58:33;;;;;;;;;;;;;;;19.23;16.82;97926.52;110265;1244;67960;-65
2022/03/24 09:01:02;;;;;;;;;;;;;;;18.77;16.59;97922.10;110470;1244;69413;-67
2022/03/24 09:03:31;;;;;;;;;;;;;;;18.79;17.03;97921.02;110284;1244;59667;-66
2022/03/24 09:06:00;;;;;;;;;;;;;;;19.18;16.84;97919.87;110289;1244;59688;-64
2022/03/24 09:08:30;;;;;;;;;;;;;;;19.23;16.66;97919.85;110138;1247;71670;-65
2022/03/24 09:10:59;;;;;;;;;;;;;;;19.42;16.48;97921.09;110152;1247;68717;-66
2022/03/24 09:13:28;;;;;;;;;;;;;;;19.46;17.25;97913.45;110121;1246;68664;-65
2022/03/24 09:15:57;;;;;;;;;;;;;;;19.28;16.91;97905.39;110083;1247;59823;-63
2022/03/24 09:18:26;;;;;;;;;;;;;;;19.14;16.69;97906.29;110154;1245;59627;-63
2022/03/24 09:20:55;;;;;;;;;;;;;;;19.62;16.36;97905.45;110285;1244;71580;-67
2022/03/24 09:23:26;;;;;;;;;;;;;;;20.15;15.90;97901.90;110181;1244;67870;-65
2022/03/24 09:25:56;;;;;;;;;;;;;;;19.70;15.29;97902.67;110125;1247;69475;-66
2022/03/24 09:28:47;;;;;;;;;;;;;;;19.20;15.96;97902.14;110359;1244;59796;-66
2022/03/24 09:31:15;;;;;;;;;;;;;;;20.12;15.32;97892.33;110394;1244;59685;-65
2022/03/24 09:33:45;;;;;;;;;;;;;;;20.73;14.52;97901.52;110445;1244;71553;-63
2022/03/24 09:36:14;;;;;;;;;;;;;;;20.40;14.49;97893.88;110124;1246;67838;-64
2022/03/24 09:38:44;;;;;;;;;;;;;;;20.82;14.55;97896.85;110329;1247;69611;-63
2022/03/24 09:41:14;;;;;;;;;;;;;;;21.43;14.36;97893.26;110118;1247;59745;-63
2022/03/24 09:43:44;;;;;;;;;;;;;;;21.50;13.69;97888.46;110124;1247;59685;-62
2022/03/24 09:46:15;;;;;;;;;;;;;;;21.80;13.73;97881.50;110207;1244;70833;-63
2022/03/24 09:48:44;;;;;;;;;;;;;;;21.82;13.58;97874.59;110530;1244;67770;-66
2022/03/24 09:51:14;;;;;;;;;;;;;;;21.52;13.82;97874.76;110160;1247;69350;-65
2022/03/24 09:53:43;;;;;;;;;;;;;;;21.52;13.87;97875.58;110129;1247;59733;-65
2022/03/24 09:56:13;;;;;;;;;;;;;;;21.71;13.53;97872.77;110178;1245;59738;-67
2022/03/24 09:58:44;;;;;;;;;;;;;;;21.21;13.89;97871.48;110084;1247;71547;-65
2022/03/24 10:01:17;;;;;;;;;;;;;;;21.39;14.20;97865.27;110405;1244;66665;-60
2022/03/24 10:04:07;;;;;;;;;;;;;;;21.92;14.25;97860.52;110165;1244;69493;-66
2022/03/24 10:06:39;;;;;;;;;;;;;;;21.84;14.05;97859.02;110440;1244;59681;-64
2022/03/24 10:09:08;;;;;;;;;;;;;;;20.70;14.74;97859.70;110290;1244;59679;-65
2022/03/24 10:11:37;;;;;;;;;;;;;;;21.34;14.08;97859.80;110310;1244;70801;-62
2022/03/24 10:14:06;;;;;;;;;;;;;;;21.34;13.88;97853.27;110467;1244;68485;-65
2022/03/24 10:16:40;;;;;;;;;;;;;;;20.75;14.45;97853.26;110145;1247;68929;-64
2022/03/24 10:19:10;;;;;;;;;;;;;;;21.35;14.70;97849.42;110143;1247;59664;-65
2022/03/24 10:21:44;;;;;;;;;;;;;;;21.98;14.21;97846.54;110469;1244;59745;-65
2022/03/24 10:24:15;;;;;;;;;;;;;;;22.68;14.01;97847.89;110395;1244;71052;-66
2022/03/24 10:26:45;;;;;;;;;;;;;;;23.30;13.63;97841.81;110424;1244;67753;-63
2022/03/24 10:29:18;;;;;;;;;;;;;;;23.15;13.59;97842.98;110387;1244;68634;-64
2022/03/24 10:31:51;;;;;;;;;;;;;;;23.59;13.10;97837.09;110432;1244;59664;-64
2022/03/24 10:34:28;;;;;;;;;;;;;;;23.12;12.84;97835.01;110419;1244;60084;-65
2022/03/24 10:36:58;;;;;;;;;;;;;;;23.03;13.30;97827.92;110402;1244;71652;-68
2022/03/24 10:39:27;;;;;;;;;;;;;;;23.47;13.10;97823.02;110454;1244;68655;-64
2022/03/24 10:42:10;;;;;;;;;;;;;;;24.27;12.59;97813.50;110433;1244;68672;-66
2022/03/24 10:44:57;;;;;;;;;;;;;;;24.44;12.40;97810.98;110402;1244;59668;-65
2022/03/24 10:47:43;;;;;;;;;;;;;;;24.60;12.60;97802.37;110086;1247;59682;-63
2022/03/24 10:50:21;;;;;;;;;;;;;;;23.75;12.41;97787.64;110491;1244;71546;-63
2022/03/24 10:52:53;;;;;;;;;;;;;;;24.49;12.28;97787.52;110411;1244;68662;-65
2022/03/24 10:55:40;;;;;;;;;;;;;;;24.58;12.73;97782.98;110115;1245;69506;-65
2022/03/24 10:58:14;;;;;;;;;;;;;;;25.34;12.04;97777.91;110443;1244;59679;-66
2022/03/24 11:00:45;;;;;;;;;;;;;;;25.74;11.65;97770.05;110204;1244;59689;-63
2022/03/24 11:03:18;;;;;;;;;;;;;;;25.44;11.12;97767.73;110470;1244;71527;-66
2022/03/24 11:05:47;;;;;;;;;;;;;;;26.10;11.53;97764.14;110225;1245;67849;-65
2022/03/24 11:08:17;;;;;;;;;;;;;;;26.41;11.53;97758.41;110198;1247;68943;-64
2022/03/24 11:10:47;;;;;;;;;;;;;;;26.06;11.19;97753.80;110336;1244;59745;-65
2022/03/24 11:13:42;;;;;;;;;;;;;;;25.00;11.62;97752.55;110368;1244;59711;-63
2022/03/24 11:16:12;;;;;;;;;;;;;;;24.06;12.19;97745.73;110282;1245;70759;-65
2022/03/24 11:18:42;;;;;;;;;;;;;;;25.13;12.10;97742.38;110357;1245;68714;-66
2022/03/24 11:21:21;;;;;;;;;;;;;;;25.57;11.56;97730.38;110383;1244;69383;-64
2022/03/24 11:23:53;;;;;;;;;;;;;;;26.34;11.24;97726.80;110164;1245;59671;-66
2022/03/24 11:26:23;;;;;;;;;;;;;;;26.74;10.02;97721.83;110438;1244;59729;-64
2022/03/24 11:28:54;;;;;;;;;;;;;;;26.33;10.03;97714.25;110423;1244;70850;-67
2022/03/24 11:31:31;;;;;;;;;;;;;;;25.11;10.38;97710.65;110375;1244;67788;-66
2022/03/24 11:34:03;;;;;;;;;;;;;;;24.66;11.29;97696.96;110193;1246;68836;-63
2022/03/24 11:36:32;;;;;;;;;;;;;;;26.06;11.23;97698.59;110373;1244;59763;-65
2022/03/24 11:39:04;;;;;;;;;;;;;;;26.59;10.05;97689.15;110186;1244;59749;-63
2022/03/24 11:41:32;;;;;;;;;;;;;;;26.66;9.58;97685.02;110451;1244;71455;-64
2022/03/24 11:44:04;;;;;;;;;;;;;;;27.26;10.13;97679.35;110468;1244;68442;-61
2022/03/24 11:46:39;;;;;;;;;;;;;;;27.67;9.73;97675.06;110150;1244;68630;-64
2022/03/24 11:49:16;;;;;;;;;;;;;;;27.27;9.02;97673.14;110162;1247;59747;-67
2022/03/24 11:51:47;;;;;;;;;;;;;;;26.92;9.12;97672.54;110428;1244;60040;-64
2022/03/24 11:54:26;;;;;;;;;;;;;;;26.93;9.14;97664.95;110473;1244;71559;-66
2022/03/24 11:57:13;;;;;;;;;;;;;;;26.92;9.62;97659.61;110456;1245;69020;-63
2022/03/24 11:59:42;;;;;;;;;;;;;;;26.07;9.96;97651.49;110431;1244;69364;-63
2022/03/24 12:02:16;;;;;;;;;;;;;;;24.86;10.44;97649.14;110214;1247;60080;-64
2022/03/24 12:04:47;;;;;;;;;;;;;;;25.45;10.19;97639.56;110461;1244;60026;-67
2022/03/24 12:07:18;;;;;;;;;;;;;;;26.15;9.75;97636.22;110052;1247;69966;-66
2022/03/24 12:09:54;;;;;;;;;;;;;;;26.83;9.58;97633.70;110095;1244;68437;-64
2022/03/24 12:12:23;;;;;;;;;;;;;;;27.33;9.16;97629.48;110143;1245;69980;-66
2022/03/24 12:14:54;;;;;;;;;;;;;;;27.72;9.37;97626.27;110384;1245;59741;-66
2022/03/24 12:17:30;;;;;;;;;;;;;;;27.71;8.51;97621.41;110312;1244;59745;-63
2022/03/24 12:20:00;;;;;;;;;;;;;;;28.05;8.83;97614.08;110420;1244;72394;-66
2022/03/24 12:22:32;;;;;;;;;;;;;;;28.05;8.57;97610.80;110186;1247;68997;-66
2022/03/24 12:25:01;;;;;;;;;;;;;;;28.36;8.50;97600.73;110444;1245;68655;-64
2022/03/24 12:27:31;;;;;;;;;;;;;;;27.92;8.35;97599.83;110437;1244;59678;-65
2022/03/24 12:30:11;;;;;;;;;;;;;;;27.51;8.10;97596.36;110429;1244;59687;-65
2022/03/24 12:32:40;;;;;;;;;;;;;;;27.18;7.80;97593.54;110377;1244;72177;-62
2022/03/24 12:35:29;;;;;;;;;;;;;;;27.41;8.01;97595.73;110551;1244;67835;-64
2022/03/24 12:37:58;;;;;;;;;;;;;;;27.70;7.55;97586.71;110129;1247;69508;-62
2022/03/24 12:40:27;;;;;;;;;;;;;;;27.33;7.48;97589.98;110379;1244;59761;-64
2022/03/24 12:42:56;;;;;;;;;;;;;;;27.27;7.41;97582.67;110200;1246;59669;-64
2022/03/24 12:45:29;;;;;;;;;;;;;;;26.90;7.63;97576.09;110500;1245;71578;-66
2022/03/24 12:48:05;;;;;;;;;;;;;;;26.94;7.74;97589.93;110451;1244;68776;-67
2022/03/24 12:50:37;;;;;;;;;;;;;;;27.14;7.57;97582.49;110381;1244;68624;-66
2022/03/24 12:53:07;;;;;;;;;;;;;;;27.32;7.33;97581.59;110249;1247;59673;-63
2022/03/24 12:55:37;;;;;;;;;;;;;;;27.50;7.30;97581.67;110428;1244;59701;-64
2022/03/24 12:58:10;;;;;;;;;;;;;;;27.12;7.49;97575.39;110373;1244;71684;-62
2022/03/24 13:00:41;;;;;;;;;;;;;;;27.03;7.57;97574.48;110426;1244;68177;-64